sensor_id;sensor_type;location;lat;lon;timestamp;P1;durP1;ratioP1;P2;durP2;ratioP2
18505;SDS011;9382;53.242;10.438;2023-06-14T00:01:13;5.93;;;3.50;;
18505;SDS011;9382;53.242;10.438;2023-06-14T00:03:40;5.63;;;3.80;;
18505;SDS011;9382;53.242;10.438;2023-06-14T00:06:07;7.83;;;3.70;;
18505;SDS011;9382;53.242;10.438;2023-06-14T00:08:33;7.47;;;3.70;;
18505;SDS011;9382;53.242;10.438;2023-06-14T00:11:00;5.07;;;3.40;;
18505;SDS011;9382;53.242;10.438;2023-06-14T00:13:26;6.13;;;3.73;;
18505;SDS011;9382;53.242;10.438;2023-06-14T00:15:54;5.63;;;3.77;;
18505;SDS011;9382;53.242;10.438;2023-06-14T00:18:21;5.63;;;3.63;;
18505;SDS011;9382;53.242;10.438;2023-06-14T00:20:51;5.03;;;3.63;;
18505;SDS011;9382;53.242;10.438;2023-06-14T00:23:18;6.20;;;3.67;;
18505;SDS011;9382;53.242;10.438;2023-06-14T00:25:45;6.17;;;3.60;;
18505;SDS011;9382;53.242;10.438;2023-06-14T00:28:12;7.67;;;3.93;;
18505;SDS011;9382;53.242;10.438;2023-06-14T00:30:39;5.70;;;3.90;;
18505;SDS011;9382;53.242;10.438;2023-06-14T00:33:07;5.40;;;3.50;;
18505;SDS011;9382;53.242;10.438;2023-06-14T00:35:33;5.77;;;3.97;;
18505;SDS011;9382;53.242;10.438;2023-06-14T00:38:00;5.20;;;3.70;;
18505;SDS011;9382;53.242;10.438;2023-06-14T00:40:27;7.17;;;4.10;;
18505;SDS011;9382;53.242;10.438;2023-06-14T00:42:53;4.73;;;3.60;;
18505;SDS011;9382;53.242;10.438;2023-06-14T00:45:20;5.93;;;3.93;;
18505;SDS011;9382;53.242;10.438;2023-06-14T00:47:46;6.03;;;3.43;;
18505;SDS011;9382;53.242;10.438;2023-06-14T00:50:19;5.60;;;3.70;;
18505;SDS011;9382;53.242;10.438;2023-06-14T00:52:48;5.17;;;3.80;;
18505;SDS011;9382;53.242;10.438;2023-06-14T00:55:15;8.47;;;3.40;;
18505;SDS011;9382;53.242;10.438;2023-06-14T00:57:41;10.30;;;3.97;;
18505;SDS011;9382;53.242;10.438;2023-06-14T01:00:09;7.37;;;3.77;;
18505;SDS011;9382;53.242;10.438;2023-06-14T01:02:37;8.13;;;4.00;;
18505;SDS011;9382;53.242;10.438;2023-06-14T01:05:05;4.23;;;3.70;;
18505;SDS011;9382;53.242;10.438;2023-06-14T01:07:36;5.70;;;3.87;;
18505;SDS011;9382;53.242;10.438;2023-06-14T01:10:18;5.07;;;3.60;;
18505;SDS011;9382;53.242;10.438;2023-06-14T01:12:52;5.93;;;3.80;;
18505;SDS011;9382;53.242;10.438;2023-06-14T01:15:24;6.07;;;3.90;;
18505;SDS011;9382;53.242;10.438;2023-06-14T01:17:53;6.50;;;4.03;;
18505;SDS011;9382;53.242;10.438;2023-06-14T01:20:28;4.10;;;3.50;;
18505;SDS011;9382;53.242;10.438;2023-06-14T01:22:57;7.13;;;4.00;;
18505;SDS011;9382;53.242;10.438;2023-06-14T01:25:24;6.50;;;3.70;;
18505;SDS011;9382;53.242;10.438;2023-06-14T01:27:51;6.60;;;3.40;;
18505;SDS011;9382;53.242;10.438;2023-06-14T01:30:20;5.53;;;3.80;;
18505;SDS011;9382;53.242;10.438;2023-06-14T01:32:50;6.70;;;4.10;;
18505;SDS011;9382;53.242;10.438;2023-06-14T01:35:17;7.57;;;4.63;;
18505;SDS011;9382;53.242;10.438;2023-06-14T01:37:44;7.53;;;4.47;;
18505;SDS011;9382;53.242;10.438;2023-06-14T01:40:15;5.70;;;4.07;;
18505;SDS011;9382;53.242;10.438;2023-06-14T01:42:43;6.37;;;3.97;;
18505;SDS011;9382;53.242;10.438;2023-06-14T01:45:12;9.60;;;4.70;;
18505;SDS011;9382;53.242;10.438;2023-06-14T01:47:40;5.70;;;3.97;;
18505;SDS011;9382;53.242;10.438;2023-06-14T01:50:07;6.17;;;3.90;;
18505;SDS011;9382;53.242;10.438;2023-06-14T01:52:36;7.83;;;3.90;;
18505;SDS011;9382;53.242;10.438;2023-06-14T01:55:03;6.67;;;4.37;;
18505;SDS011;9382;53.242;10.438;2023-06-14T01:57:31;6.40;;;3.70;;
18505;SDS011;9382;53.242;10.438;2023-06-14T01:59:58;5.90;;;3.67;;
18505;SDS011;9382;53.242;10.438;2023-06-14T02:02:24;6.43;;;4.10;;
18505;SDS011;9382;53.242;10.438;2023-06-14T02:04:51;5.67;;;3.80;;
18505;SDS011;9382;53.242;10.438;2023-06-14T02:07:18;5.10;;;3.50;;
18505;SDS011;9382;53.242;10.438;2023-06-14T02:09:44;7.97;;;3.93;;
18505;SDS011;9382;53.242;10.438;2023-06-14T02:12:11;5.93;;;3.80;;
18505;SDS011;9382;53.242;10.438;2023-06-14T02:14:39;6.00;;;3.70;;
18505;SDS011;9382;53.242;10.438;2023-06-14T02:17:06;7.40;;;4.70;;
18505;SDS011;9382;53.242;10.438;2023-06-14T02:19:33;4.73;;;4.03;;
18505;SDS011;9382;53.242;10.438;2023-06-14T02:21:59;9.57;;;4.10;;
18505;SDS011;9382;53.242;10.438;2023-06-14T02:24:26;6.77;;;3.67;;
18505;SDS011;9382;53.242;10.438;2023-06-14T02:26:53;8.33;;;3.97;;
18505;SDS011;9382;53.242;10.438;2023-06-14T02:29:19;6.53;;;3.90;;
18505;SDS011;9382;53.242;10.438;2023-06-14T02:31:47;5.23;;;4.10;;
18505;SDS011;9382;53.242;10.438;2023-06-14T02:34:14;9.90;;;4.40;;
18505;SDS011;9382;53.242;10.438;2023-06-14T02:36:42;7.27;;;4.13;;
18505;SDS011;9382;53.242;10.438;2023-06-14T02:39:09;6.47;;;4.10;;
18505;SDS011;9382;53.242;10.438;2023-06-14T02:41:36;5.57;;;3.60;;
18505;SDS011;9382;53.242;10.438;2023-06-14T02:44:03;4.87;;;3.87;;
18505;SDS011;9382;53.242;10.438;2023-06-14T02:46:30;4.67;;;3.70;;
18505;SDS011;9382;53.242;10.438;2023-06-14T02:48:58;8.00;;;4.10;;
18505;SDS011;9382;53.242;10.438;2023-06-14T02:51:25;6.40;;;4.17;;
18505;SDS011;9382;53.242;10.438;2023-06-14T02:53:51;8.43;;;4.53;;
18505;SDS011;9382;53.242;10.438;2023-06-14T02:56:18;6.43;;;4.40;;
18505;SDS011;9382;53.242;10.438;2023-06-14T02:58:45;6.30;;;4.00;;
18505;SDS011;9382;53.242;10.438;2023-06-14T03:01:13;8.57;;;4.87;;
18505;SDS011;9382;53.242;10.438;2023-06-14T03:03:40;7.70;;;4.50;;
18505;SDS011;9382;53.242;10.438;2023-06-14T03:06:08;7.57;;;4.43;;
18505;SDS011;9382;53.242;10.438;2023-06-14T03:08:38;9.27;;;4.40;;
18505;SDS011;9382;53.242;10.438;2023-06-14T03:11:06;7.80;;;4.60;;
18505;SDS011;9382;53.242;10.438;2023-06-14T03:13:34;5.40;;;4.17;;
18505;SDS011;9382;53.242;10.438;2023-06-14T03:16:00;8.43;;;4.30;;
18505;SDS011;9382;53.242;10.438;2023-06-14T03:18:28;7.80;;;4.87;;
18505;SDS011;9382;53.242;10.438;2023-06-14T03:20:55;8.57;;;4.67;;
18505;SDS011;9382;53.242;10.438;2023-06-14T03:23:24;4.93;;;4.20;;
18505;SDS011;9382;53.242;10.438;2023-06-14T03:25:51;6.70;;;4.93;;
18505;SDS011;9382;53.242;10.438;2023-06-14T03:28:17;10.70;;;4.60;;
18505;SDS011;9382;53.242;10.438;2023-06-14T03:30:44;6.73;;;4.80;;
18505;SDS011;9382;53.242;10.438;2023-06-14T03:33:11;7.57;;;4.80;;
18505;SDS011;9382;53.242;10.438;2023-06-14T03:35:38;7.93;;;4.63;;
18505;SDS011;9382;53.242;10.438;2023-06-14T03:38:05;8.60;;;4.60;;
18505;SDS011;9382;53.242;10.438;2023-06-14T03:40:33;7.70;;;4.63;;
18505;SDS011;9382;53.242;10.438;2023-06-14T03:42:59;8.40;;;4.73;;
18505;SDS011;9382;53.242;10.438;2023-06-14T03:45:26;8.80;;;5.13;;
18505;SDS011;9382;53.242;10.438;2023-06-14T03:47:53;8.30;;;4.77;;
18505;SDS011;9382;53.242;10.438;2023-06-14T03:50:19;7.93;;;4.67;;
18505;SDS011;9382;53.242;10.438;2023-06-14T03:52:47;7.83;;;4.73;;
18505;SDS011;9382;53.242;10.438;2023-06-14T03:55:14;8.63;;;5.00;;
18505;SDS011;9382;53.242;10.438;2023-06-14T03:57:42;6.73;;;5.00;;
18505;SDS011;9382;53.242;10.438;2023-06-14T04:00:09;6.57;;;4.50;;
18505;SDS011;9382;53.242;10.438;2023-06-14T04:02:37;10.23;;;5.37;;
18505;SDS011;9382;53.242;10.438;2023-06-14T04:05:04;6.23;;;4.40;;
18505;SDS011;9382;53.242;10.438;2023-06-14T04:07:33;10.23;;;5.27;;
18505;SDS011;9382;53.242;10.438;2023-06-14T04:10:05;11.03;;;4.60;;
18505;SDS011;9382;53.242;10.438;2023-06-14T04:12:32;6.77;;;4.50;;
18505;SDS011;9382;53.242;10.438;2023-06-14T04:15:00;8.17;;;5.30;;
18505;SDS011;9382;53.242;10.438;2023-06-14T04:17:27;7.97;;;4.97;;
18505;SDS011;9382;53.242;10.438;2023-06-14T04:19:53;9.20;;;4.83;;
18505;SDS011;9382;53.242;10.438;2023-06-14T04:22:20;9.47;;;5.30;;
18505;SDS011;9382;53.242;10.438;2023-06-14T04:24:47;10.40;;;5.90;;
18505;SDS011;9382;53.242;10.438;2023-06-14T04:27:14;9.30;;;5.20;;
18505;SDS011;9382;53.242;10.438;2023-06-14T04:29:46;7.77;;;5.60;;
18505;SDS011;9382;53.242;10.438;2023-06-14T04:32:19;8.80;;;5.57;;
18505;SDS011;9382;53.242;10.438;2023-06-14T04:34:46;10.23;;;6.13;;
18505;SDS011;9382;53.242;10.438;2023-06-14T04:37:13;11.77;;;5.63;;
18505;SDS011;9382;53.242;10.438;2023-06-14T04:39:40;8.93;;;6.10;;
18505;SDS011;9382;53.242;10.438;2023-06-14T04:42:07;9.70;;;5.83;;
18505;SDS011;9382;53.242;10.438;2023-06-14T04:44:36;10.93;;;5.90;;
18505;SDS011;9382;53.242;10.438;2023-06-14T04:47:05;10.13;;;5.50;;
18505;SDS011;9382;53.242;10.438;2023-06-14T04:49:33;9.13;;;5.80;;
18505;SDS011;9382;53.242;10.438;2023-06-14T04:52:00;10.43;;;5.30;;
18505;SDS011;9382;53.242;10.438;2023-06-14T04:54:27;10.57;;;5.50;;
18505;SDS011;9382;53.242;10.438;2023-06-14T04:56:56;10.13;;;6.10;;
18505;SDS011;9382;53.242;10.438;2023-06-14T04:59:23;12.53;;;6.83;;
18505;SDS011;9382;53.242;10.438;2023-06-14T05:01:50;9.60;;;6.83;;
18505;SDS011;9382;53.242;10.438;2023-06-14T05:04:18;9.17;;;6.47;;
18505;SDS011;9382;53.242;10.438;2023-06-14T05:06:47;11.47;;;7.17;;
18505;SDS011;9382;53.242;10.438;2023-06-14T05:09:14;10.37;;;6.70;;
18505;SDS011;9382;53.242;10.438;2023-06-14T05:11:41;14.07;;;7.13;;
18505;SDS011;9382;53.242;10.438;2023-06-14T05:14:09;11.03;;;6.33;;
18505;SDS011;9382;53.242;10.438;2023-06-14T05:16:35;11.07;;;6.60;;
18505;SDS011;9382;53.242;10.438;2023-06-14T05:19:04;10.00;;;6.70;;
18505;SDS011;9382;53.242;10.438;2023-06-14T05:21:30;12.00;;;6.87;;
18505;SDS011;9382;53.242;10.438;2023-06-14T05:24:00;14.07;;;7.40;;
18505;SDS011;9382;53.242;10.438;2023-06-14T05:26:26;12.50;;;6.57;;
18505;SDS011;9382;53.242;10.438;2023-06-14T05:28:53;11.00;;;5.93;;
18505;SDS011;9382;53.242;10.438;2023-06-14T05:31:21;9.80;;;5.60;;
18505;SDS011;9382;53.242;10.438;2023-06-14T05:33:48;9.17;;;5.43;;
18505;SDS011;9382;53.242;10.438;2023-06-14T05:36:14;10.50;;;5.67;;
18505;SDS011;9382;53.242;10.438;2023-06-14T05:38:41;12.40;;;5.30;;
18505;SDS011;9382;53.242;10.438;2023-06-14T05:41:09;7.30;;;5.07;;
18505;SDS011;9382;53.242;10.438;2023-06-14T05:43:35;12.07;;;5.20;;
18505;SDS011;9382;53.242;10.438;2023-06-14T05:46:02;9.90;;;4.97;;
18505;SDS011;9382;53.242;10.438;2023-06-14T05:48:29;7.43;;;4.77;;
18505;SDS011;9382;53.242;10.438;2023-06-14T05:50:56;9.20;;;5.10;;
18505;SDS011;9382;53.242;10.438;2023-06-14T05:53:23;6.90;;;4.60;;
18505;SDS011;9382;53.242;10.438;2023-06-14T05:55:50;8.93;;;4.87;;
18505;SDS011;9382;53.242;10.438;2023-06-14T05:58:21;7.83;;;4.67;;
18505;SDS011;9382;53.242;10.438;2023-06-14T06:00:47;8.83;;;4.60;;
18505;SDS011;9382;53.242;10.438;2023-06-14T06:03:14;7.43;;;4.37;;
18505;SDS011;9382;53.242;10.438;2023-06-14T06:05:41;7.07;;;4.47;;
18505;SDS011;9382;53.242;10.438;2023-06-14T06:08:07;6.70;;;4.30;;
18505;SDS011;9382;53.242;10.438;2023-06-14T06:10:34;6.80;;;4.17;;
18505;SDS011;9382;53.242;10.438;2023-06-14T06:13:01;19.77;;;4.60;;
18505;SDS011;9382;53.242;10.438;2023-06-14T06:15:28;10.63;;;4.03;;
18505;SDS011;9382;53.242;10.438;2023-06-14T06:17:55;7.47;;;3.90;;
18505;SDS011;9382;53.242;10.438;2023-06-14T06:20:22;6.70;;;4.57;;
18505;SDS011;9382;53.242;10.438;2023-06-14T06:22:52;10.97;;;4.30;;
18505;SDS011;9382;53.242;10.438;2023-06-14T06:25:19;16.13;;;4.63;;
18505;SDS011;9382;53.242;10.438;2023-06-14T06:27:47;11.47;;;4.30;;
18505;SDS011;9382;53.242;10.438;2023-06-14T06:30:14;6.67;;;4.33;;
18505;SDS011;9382;53.242;10.438;2023-06-14T06:32:43;7.37;;;4.03;;
18505;SDS011;9382;53.242;10.438;2023-06-14T06:35:09;6.87;;;3.80;;
18505;SDS011;9382;53.242;10.438;2023-06-14T06:37:37;6.27;;;4.13;;
18505;SDS011;9382;53.242;10.438;2023-06-14T06:40:04;9.13;;;3.83;;
18505;SDS011;9382;53.242;10.438;2023-06-14T06:42:32;4.27;;;3.80;;
18505;SDS011;9382;53.242;10.438;2023-06-14T06:44:59;8.90;;;3.87;;
18505;SDS011;9382;53.242;10.438;2023-06-14T06:47:26;6.83;;;4.03;;
18505;SDS011;9382;53.242;10.438;2023-06-14T06:49:54;6.80;;;3.83;;
18505;SDS011;9382;53.242;10.438;2023-06-14T06:52:21;6.53;;;3.60;;
18505;SDS011;9382;53.242;10.438;2023-06-14T06:54:48;4.33;;;3.93;;
18505;SDS011;9382;53.242;10.438;2023-06-14T06:57:15;4.07;;;3.40;;
18505;SDS011;9382;53.242;10.438;2023-06-14T06:59:42;4.87;;;3.40;;
18505;SDS011;9382;53.242;10.438;2023-06-14T07:02:09;4.53;;;3.20;;
18505;SDS011;9382;53.242;10.438;2023-06-14T07:04:35;4.17;;;3.20;;
18505;SDS011;9382;53.242;10.438;2023-06-14T07:07:04;2.97;;;2.73;;
18505;SDS011;9382;53.242;10.438;2023-06-14T07:09:30;6.70;;;3.63;;
18505;SDS011;9382;53.242;10.438;2023-06-14T07:11:57;4.33;;;3.20;;
18505;SDS011;9382;53.242;10.438;2023-06-14T07:14:23;3.37;;;3.07;;
18505;SDS011;9382;53.242;10.438;2023-06-14T07:16:50;4.30;;;3.07;;
18505;SDS011;9382;53.242;10.438;2023-06-14T07:19:17;3.27;;;2.90;;
18505;SDS011;9382;53.242;10.438;2023-06-14T07:21:43;4.20;;;3.23;;
18505;SDS011;9382;53.242;10.438;2023-06-14T07:24:11;5.47;;;3.10;;
18505;SDS011;9382;53.242;10.438;2023-06-14T07:26:38;3.23;;;2.93;;
18505;SDS011;9382;53.242;10.438;2023-06-14T07:29:04;5.13;;;2.90;;
18505;SDS011;9382;53.242;10.438;2023-06-14T07:31:31;3.10;;;2.80;;
18505;SDS011;9382;53.242;10.438;2023-06-14T07:33:58;3.40;;;2.70;;
18505;SDS011;9382;53.242;10.438;2023-06-14T07:36:24;4.00;;;2.90;;
18505;SDS011;9382;53.242;10.438;2023-06-14T07:38:51;3.93;;;3.30;;
18505;SDS011;9382;53.242;10.438;2023-06-14T07:41:19;4.37;;;3.13;;
18505;SDS011;9382;53.242;10.438;2023-06-14T07:43:46;4.20;;;3.10;;
18505;SDS011;9382;53.242;10.438;2023-06-14T07:46:12;5.43;;;3.20;;
18505;SDS011;9382;53.242;10.438;2023-06-14T07:48:40;6.30;;;3.23;;
18505;SDS011;9382;53.242;10.438;2023-06-14T07:51:07;5.27;;;3.40;;
18505;SDS011;9382;53.242;10.438;2023-06-14T07:53:33;4.00;;;3.10;;
18505;SDS011;9382;53.242;10.438;2023-06-14T07:56:00;4.83;;;2.97;;
18505;SDS011;9382;53.242;10.438;2023-06-14T07:58:29;4.70;;;3.20;;
18505;SDS011;9382;53.242;10.438;2023-06-14T08:00:55;3.20;;;2.90;;
18505;SDS011;9382;53.242;10.438;2023-06-14T08:03:22;5.20;;;3.00;;
18505;SDS011;9382;53.242;10.438;2023-06-14T08:05:49;4.43;;;3.37;;
18505;SDS011;9382;53.242;10.438;2023-06-14T08:08:16;5.17;;;3.27;;
18505;SDS011;9382;53.242;10.438;2023-06-14T08:10:42;6.60;;;3.47;;
18505;SDS011;9382;53.242;10.438;2023-06-14T08:13:09;4.53;;;3.33;;
18505;SDS011;9382;53.242;10.438;2023-06-14T08:15:38;5.47;;;3.07;;
18505;SDS011;9382;53.242;10.438;2023-06-14T08:18:04;4.67;;;3.20;;
18505;SDS011;9382;53.242;10.438;2023-06-14T08:20:31;5.27;;;3.20;;
18505;SDS011;9382;53.242;10.438;2023-06-14T08:22:59;4.00;;;3.10;;
18505;SDS011;9382;53.242;10.438;2023-06-14T08:25:26;5.17;;;3.43;;
18505;SDS011;9382;53.242;10.438;2023-06-14T08:27:53;3.10;;;2.80;;
18505;SDS011;9382;53.242;10.438;2023-06-14T08:30:19;6.53;;;3.37;;
18505;SDS011;9382;53.242;10.438;2023-06-14T08:32:48;8.00;;;3.33;;
18505;SDS011;9382;53.242;10.438;2023-06-14T08:35:16;11.40;;;3.40;;
18505;SDS011;9382;53.242;10.438;2023-06-14T08:37:43;5.77;;;3.37;;
18505;SDS011;9382;53.242;10.438;2023-06-14T08:40:13;6.40;;;3.20;;
18505;SDS011;9382;53.242;10.438;2023-06-14T08:42:46;4.40;;;3.20;;
18505;SDS011;9382;53.242;10.438;2023-06-14T08:45:16;5.43;;;3.57;;
18505;SDS011;9382;53.242;10.438;2023-06-14T08:47:42;7.37;;;3.20;;
18505;SDS011;9382;53.242;10.438;2023-06-14T08:50:12;11.37;;;3.43;;
18505;SDS011;9382;53.242;10.438;2023-06-14T08:52:41;5.80;;;3.43;;
18505;SDS011;9382;53.242;10.438;2023-06-14T08:55:15;4.87;;;3.00;;
18505;SDS011;9382;53.242;10.438;2023-06-14T08:57:44;4.93;;;3.67;;
18505;SDS011;9382;53.242;10.438;2023-06-14T09:00:13;3.90;;;3.40;;
18505;SDS011;9382;53.242;10.438;2023-06-14T09:02:40;5.97;;;3.47;;
18505;SDS011;9382;53.242;10.438;2023-06-14T09:05:08;3.67;;;3.37;;
18505;SDS011;9382;53.242;10.438;2023-06-14T09:07:37;8.63;;;3.90;;
18505;SDS011;9382;53.242;10.438;2023-06-14T09:10:06;7.80;;;3.70;;
18505;SDS011;9382;53.242;10.438;2023-06-14T09:12:34;5.53;;;3.27;;
18505;SDS011;9382;53.242;10.438;2023-06-14T09:15:01;3.10;;;2.90;;
18505;SDS011;9382;53.242;10.438;2023-06-14T09:17:31;11.40;;;3.53;;
18505;SDS011;9382;53.242;10.438;2023-06-14T09:19:59;5.13;;;3.60;;
18505;SDS011;9382;53.242;10.438;2023-06-14T09:22:28;6.20;;;3.20;;
18505;SDS011;9382;53.242;10.438;2023-06-14T09:24:57;6.80;;;3.30;;
18505;SDS011;9382;53.242;10.438;2023-06-14T09:27:25;9.07;;;3.30;;
18505;SDS011;9382;53.242;10.438;2023-06-14T09:29:52;6.40;;;3.17;;
18505;SDS011;9382;53.242;10.438;2023-06-14T09:32:18;5.40;;;3.30;;
18505;SDS011;9382;53.242;10.438;2023-06-14T09:34:46;4.43;;;3.35;;
18505;SDS011;9382;53.242;10.438;2023-06-14T09:37:13;5.32;;;3.10;;
18505;SDS011;9382;53.242;10.438;2023-06-14T09:39:53;5.15;;;3.55;;
18505;SDS011;9382;53.242;10.438;2023-06-14T09:42:21;7.18;;;3.28;;
18505;SDS011;9382;53.242;10.438;2023-06-14T09:44:50;4.63;;;3.47;;
18505;SDS011;9382;53.242;10.438;2023-06-14T09:47:18;5.50;;;3.17;;
18505;SDS011;9382;53.242;10.438;2023-06-14T09:49:45;5.07;;;2.80;;
18505;SDS011;9382;53.242;10.438;2023-06-14T09:52:14;8.60;;;3.30;;
18505;SDS011;9382;53.242;10.438;2023-06-14T09:54:42;9.00;;;3.30;;
18505;SDS011;9382;53.242;10.438;2023-06-14T09:57:11;4.50;;;2.97;;
18505;SDS011;9382;53.242;10.438;2023-06-14T09:59:41;7.40;;;2.80;;
18505;SDS011;9382;53.242;10.438;2023-06-14T10:02:10;8.98;;;3.30;;
18505;SDS011;9382;53.242;10.438;2023-06-14T10:04:40;8.27;;;3.22;;
18505;SDS011;9382;53.242;10.438;2023-06-14T10:07:17;5.47;;;3.13;;
18505;SDS011;9382;53.242;10.438;2023-06-14T10:09:46;7.07;;;3.17;;
18505;SDS011;9382;53.242;10.438;2023-06-14T10:12:15;4.43;;;3.30;;
18505;SDS011;9382;53.242;10.438;2023-06-14T10:14:47;5.20;;;3.08;;
18505;SDS011;9382;53.242;10.438;2023-06-14T10:17:17;5.28;;;3.38;;
18505;SDS011;9382;53.242;10.438;2023-06-14T10:19:50;6.05;;;3.17;;
18505;SDS011;9382;53.242;10.438;2023-06-14T10:22:21;6.43;;;3.15;;
18505;SDS011;9382;53.242;10.438;2023-06-14T10:24:53;5.78;;;3.33;;
18505;SDS011;9382;53.242;10.438;2023-06-14T10:27:20;4.20;;;3.80;;
18505;SDS011;9382;53.242;10.438;2023-06-14T10:35:32;5.50;;;3.10;;
18505;SDS011;9382;53.242;10.438;2023-06-14T10:38:08;6.53;;;3.27;;
18505;SDS011;9382;53.242;10.438;2023-06-14T10:40:35;5.33;;;2.90;;
18505;SDS011;9382;53.242;10.438;2023-06-14T10:43:20;5.03;;;2.97;;
18505;SDS011;9382;53.242;10.438;2023-06-14T10:48:43;4.90;;;3.13;;
18505;SDS011;9382;53.242;10.438;2023-06-14T10:51:17;5.65;;;2.92;;
18505;SDS011;9382;53.242;10.438;2023-06-14T10:53:45;7.65;;;3.35;;
18505;SDS011;9382;53.242;10.438;2023-06-14T10:56:28;5.13;;;3.05;;
18505;SDS011;9382;53.242;10.438;2023-06-14T10:58:56;5.30;;;3.22;;
18505;SDS011;9382;53.242;10.438;2023-06-14T11:01:28;4.75;;;3.10;;
18505;SDS011;9382;53.242;10.438;2023-06-14T11:04:06;5.70;;;3.22;;
18505;SDS011;9382;53.242;10.438;2023-06-14T11:06:43;5.40;;;3.30;;
18505;SDS011;9382;53.242;10.438;2023-06-14T11:09:33;6.85;;;3.40;;
18505;SDS011;9382;53.242;10.438;2023-06-14T11:12:13;2.75;;;2.50;;
18505;SDS011;9382;53.242;10.438;2023-06-14T11:14:41;4.40;;;3.13;;
18505;SDS011;9382;53.242;10.438;2023-06-14T11:17:11;7.60;;;3.03;;
18505;SDS011;9382;53.242;10.438;2023-06-14T11:19:38;6.97;;;3.03;;
18505;SDS011;9382;53.242;10.438;2023-06-14T11:22:05;8.77;;;3.23;;
18505;SDS011;9382;53.242;10.438;2023-06-14T11:24:32;9.38;;;3.00;;
18505;SDS011;9382;53.242;10.438;2023-06-14T11:26:58;7.38;;;3.30;;
18505;SDS011;9382;53.242;10.438;2023-06-14T11:29:25;10.68;;;4.00;;
18505;SDS011;9382;53.242;10.438;2023-06-14T11:31:54;4.80;;;3.20;;
18505;SDS011;9382;53.242;10.438;2023-06-14T11:34:22;5.85;;;2.80;;
18505;SDS011;9382;53.242;10.438;2023-06-14T11:36:50;4.60;;;3.00;;
18505;SDS011;9382;53.242;10.438;2023-06-14T11:39:17;7.60;;;2.70;;
18505;SDS011;9382;53.242;10.438;2023-06-14T11:41:50;8.20;;;2.83;;
18505;SDS011;9382;53.242;10.438;2023-06-14T11:44:16;8.20;;;2.67;;
18505;SDS011;9382;53.242;10.438;2023-06-14T11:46:43;4.82;;;3.00;;
18505;SDS011;9382;53.242;10.438;2023-06-14T11:49:10;4.40;;;2.70;;
18505;SDS011;9382;53.242;10.438;2023-06-14T11:51:39;9.30;;;3.20;;
18505;SDS011;9382;53.242;10.438;2023-06-14T11:54:06;8.10;;;3.05;;
18505;SDS011;9382;53.242;10.438;2023-06-14T11:56:33;6.88;;;3.15;;
18505;SDS011;9382;53.242;10.438;2023-06-14T11:59:02;6.85;;;3.00;;
18505;SDS011;9382;53.242;10.438;2023-06-14T12:01:30;5.30;;;3.03;;
18505;SDS011;9382;53.242;10.438;2023-06-14T12:03:58;19.70;;;3.50;;
18505;SDS011;9382;53.242;10.438;2023-06-14T12:06:26;17.13;;;3.53;;
18505;SDS011;9382;53.242;10.438;2023-06-14T12:09:00;6.07;;;2.80;;
18505;SDS011;9382;53.242;10.438;2023-06-14T12:11:31;12.83;;;3.50;;
18505;SDS011;9382;53.242;10.438;2023-06-14T12:13:59;9.73;;;2.90;;
18505;SDS011;9382;53.242;10.438;2023-06-14T12:16:29;5.23;;;2.90;;
18505;SDS011;9382;53.242;10.438;2023-06-14T12:18:59;6.73;;;2.77;;
18505;SDS011;9382;53.242;10.438;2023-06-14T12:21:27;6.30;;;2.90;;
18505;SDS011;9382;53.242;10.438;2023-06-14T12:23:54;9.20;;;3.20;;
18505;SDS011;9382;53.242;10.438;2023-06-14T12:26:22;8.70;;;3.20;;
18505;SDS011;9382;53.242;10.438;2023-06-14T12:28:52;7.68;;;2.85;;
18505;SDS011;9382;53.242;10.438;2023-06-14T12:31:18;3.15;;;2.42;;
18505;SDS011;9382;53.242;10.438;2023-06-14T12:33:46;6.45;;;2.90;;
18505;SDS011;9382;53.242;10.438;2023-06-14T12:36:13;4.80;;;3.05;;
18505;SDS011;9382;53.242;10.438;2023-06-14T12:38:40;2.85;;;2.50;;
18505;SDS011;9382;53.242;10.438;2023-06-14T12:41:07;3.95;;;2.60;;
18505;SDS011;9382;53.242;10.438;2023-06-14T12:43:35;13.65;;;3.03;;
18505;SDS011;9382;53.242;10.438;2023-06-14T12:46:02;12.40;;;3.55;;
18505;SDS011;9382;53.242;10.438;2023-06-14T12:48:28;5.65;;;3.00;;
18505;SDS011;9382;53.242;10.438;2023-06-14T12:50:56;7.78;;;3.00;;
18505;SDS011;9382;53.242;10.438;2023-06-14T12:53:23;10.27;;;2.90;;
18505;SDS011;9382;53.242;10.438;2023-06-14T12:55:49;6.45;;;2.92;;
18505;SDS011;9382;53.242;10.438;2023-06-14T12:58:16;9.52;;;3.33;;
18505;SDS011;9382;53.242;10.438;2023-06-14T13:00:46;3.70;;;2.70;;
18505;SDS011;9382;53.242;10.438;2023-06-14T13:03:12;8.10;;;3.10;;
18505;SDS011;9382;53.242;10.438;2023-06-14T13:05:39;5.30;;;2.70;;
18505;SDS011;9382;53.242;10.438;2023-06-14T13:08:08;6.93;;;2.70;;
18505;SDS011;9382;53.242;10.438;2023-06-14T13:10:34;9.15;;;3.00;;
18505;SDS011;9382;53.242;10.438;2023-06-14T13:13:01;9.77;;;2.80;;
18505;SDS011;9382;53.242;10.438;2023-06-14T13:15:28;19.60;;;3.67;;
18505;SDS011;9382;53.242;10.438;2023-06-14T13:17:56;22.25;;;3.80;;
18505;SDS011;9382;53.242;10.438;2023-06-14T13:20:22;5.22;;;3.03;;
18505;SDS011;9382;53.242;10.438;2023-06-14T13:22:49;9.93;;;3.00;;
18505;SDS011;9382;53.242;10.438;2023-06-14T13:25:16;4.43;;;2.88;;
18505;SDS011;9382;53.242;10.438;2023-06-14T13:27:42;4.82;;;2.85;;
18505;SDS011;9382;53.242;10.438;2023-06-14T13:30:09;6.03;;;2.72;;
18505;SDS011;9382;53.242;10.438;2023-06-14T13:32:37;8.85;;;2.70;;
18505;SDS011;9382;53.242;10.438;2023-06-14T13:35:05;5.03;;;2.80;;
18505;SDS011;9382;53.242;10.438;2023-06-14T13:37:32;7.05;;;3.05;;
18505;SDS011;9382;53.242;10.438;2023-06-14T13:39:59;5.60;;;2.67;;
18505;SDS011;9382;53.242;10.438;2023-06-14T13:42:26;12.75;;;3.08;;
18505;SDS011;9382;53.242;10.438;2023-06-14T13:44:56;7.05;;;2.90;;
18505;SDS011;9382;53.242;10.438;2023-06-14T13:47:22;3.35;;;2.83;;
18505;SDS011;9382;53.242;10.438;2023-06-14T13:49:49;3.72;;;2.90;;
18505;SDS011;9382;53.242;10.438;2023-06-14T13:52:17;7.68;;;3.20;;
18505;SDS011;9382;53.242;10.438;2023-06-14T13:54:44;6.53;;;3.05;;
18505;SDS011;9382;53.242;10.438;2023-06-14T13:57:10;11.13;;;2.80;;
18505;SDS011;9382;53.242;10.438;2023-06-14T13:59:38;5.55;;;2.95;;
18505;SDS011;9382;53.242;10.438;2023-06-14T14:02:05;3.00;;;2.60;;
18505;SDS011;9382;53.242;10.438;2023-06-14T14:04:32;4.97;;;2.50;;
18505;SDS011;9382;53.242;10.438;2023-06-14T14:07:00;6.75;;;2.92;;
18505;SDS011;9382;53.242;10.438;2023-06-14T14:09:28;5.30;;;2.83;;
18505;SDS011;9382;53.242;10.438;2023-06-14T14:11:55;6.90;;;3.03;;
18505;SDS011;9382;53.242;10.438;2023-06-14T14:14:22;5.13;;;2.88;;
18505;SDS011;9382;53.242;10.438;2023-06-14T14:16:48;5.18;;;2.75;;
18505;SDS011;9382;53.242;10.438;2023-06-14T14:19:16;7.85;;;2.78;;
18505;SDS011;9382;53.242;10.438;2023-06-14T14:21:43;5.72;;;2.78;;
18505;SDS011;9382;53.242;10.438;2023-06-14T14:24:10;4.78;;;2.97;;
18505;SDS011;9382;53.242;10.438;2023-06-14T14:26:38;20.17;;;4.57;;
18505;SDS011;9382;53.242;10.438;2023-06-14T14:29:05;4.67;;;2.90;;
18505;SDS011;9382;53.242;10.438;2023-06-14T14:31:32;4.80;;;2.90;;
18505;SDS011;9382;53.242;10.438;2023-06-14T14:33:58;6.10;;;2.80;;
18505;SDS011;9382;53.242;10.438;2023-06-14T14:36:25;10.43;;;3.30;;
18505;SDS011;9382;53.242;10.438;2023-06-14T14:38:52;6.47;;;3.10;;
18505;SDS011;9382;53.242;10.438;2023-06-14T14:41:18;4.45;;;2.63;;
18505;SDS011;9382;53.242;10.438;2023-06-14T14:43:46;5.35;;;3.00;;
18505;SDS011;9382;53.242;10.438;2023-06-14T14:46:13;16.88;;;3.75;;
18505;SDS011;9382;53.242;10.438;2023-06-14T14:48:41;6.63;;;3.22;;
18505;SDS011;9382;53.242;10.438;2023-06-14T14:51:08;42.78;;;6.70;;
18505;SDS011;9382;53.242;10.438;2023-06-14T14:53:35;23.73;;;4.57;;
18505;SDS011;9382;53.242;10.438;2023-06-14T14:56:01;8.65;;;3.55;;
18505;SDS011;9382;53.242;10.438;2023-06-14T14:58:28;7.50;;;3.10;;